Time;durP1;ratioP1;P1;durP2;ratioP2;P2;SDS_P1;SDS_P2;PMS_P1;PMS_P2;Temp;Humidity;BMP_temperature;BMP_pressure;BME280_temperature;BME280_humidity;BME280_pressure;Samples;Min_cycle;Max_cycle;Signal;HPM_P1;HPM_P2
2024/03/01 00:01:41;;;;;;;7.78;5.05;;;;;;;8.13;100.00;100156.03;5090138;28;20024;-40
2024/03/01 00:04:07;;;;;;;6.83;4.40;;;;;;;8.13;100.00;100158.72;5090424;28;20039;-40
2024/03/01 00:06:32;;;;;;;5.30;4.70;;;;;;;8.09;100.00;100159.41;5080795;28;20027;-40
2024/03/01 00:08:58;;;;;;;4.97;3.90;;;;;;;8.08;100.00;100155.91;5076647;28;20103;-40
2024/03/01 00:11:24;;;;;;;4.82;4.18;;;;;;;8.05;100.00;100148.28;5076154;28;20461;-40
2024/03/01 00:13:49;;;;;;;4.55;3.88;;;;;;;7.95;100.00;100140.78;5076399;28;20056;-40
2024/03/01 00:16:14;;;;;;;4.68;4.28;;;;;;;8.00;100.00;100148.16;5076150;28;20020;-40
2024/03/01 00:18:40;;;;;;;5.93;4.40;;;;;;;7.99;100.00;100159.97;5076378;28;20021;-40
2024/03/01 00:21:05;;;;;;;6.27;4.47;;;;;;;7.99;100.00;100155.41;5076061;28;20103;-40
2024/03/01 00:23:31;;;;;;;4.23;3.73;;;;;;;8.01;100.00;100155.22;5076010;28;20044;-40
2024/03/01 00:25:56;;;;;;;4.43;3.85;;;;;;;8.00;100.00;100148.16;5075718;28;20266;-40
2024/03/01 00:28:22;;;;;;;4.60;3.88;;;;;;;8.00;100.00;100149.00;5076757;28;20020;-40
2024/03/01 00:30:47;;;;;;;5.90;3.63;;;;;;;7.99;100.00;100141.13;5075577;28;20108;-40
2024/03/01 00:33:13;;;;;;;3.90;3.55;;;;;;;8.03;100.00;100139.63;5076261;28;20271;-40
2024/03/01 00:35:38;;;;;;;4.35;3.38;;;;;;;8.06;100.00;100138.34;5076496;28;20119;-40
2024/03/01 00:38:04;;;;;;;3.77;3.20;;;;;;;8.07;100.00;100143.50;5075805;28;20368;-40
2024/03/01 00:40:29;;;;;;;6.07;3.90;;;;;;;8.02;100.00;100123.72;5075731;28;20718;-40
2024/03/01 00:42:55;;;;;;;4.90;3.30;;;;;;;8.14;100.00;100133.44;5075708;28;20032;-40
2024/03/01 00:45:21;;;;;;;5.03;3.97;;;;;;;8.17;100.00;100126.78;5075967;28;20044;-40
2024/03/01 00:47:50;;;;;;;4.47;3.20;;;;;;;8.14;100.00;100116.44;5075572;28;20036;-40
2024/03/01 00:50:19;;;;;;;4.95;3.40;;;;;;;8.26;100.00;100120.00;5076029;28;20033;-41
2024/03/01 00:52:45;;;;;;;4.13;3.28;;;;;;;8.28;100.00;100117.88;5075752;28;20016;-41
2024/03/01 00:55:10;;;;;;;3.70;3.27;;;;;;;8.30;100.00;100115.78;5075735;28;20552;-40
2024/03/01 00:57:35;;;;;;;4.07;2.90;;;;;;;8.31;100.00;100120.13;5075327;28;20263;-40
2024/03/01 01:00:01;;;;;;;4.80;3.30;;;;;;;8.34;100.00;100116.94;5075857;28;20262;-40
2024/03/01 01:02:27;;;;;;;3.33;3.03;;;;;;;8.36;100.00;100114.88;5075239;28;20044;-40
2024/03/01 01:04:52;;;;;;;3.38;2.65;;;;;;;8.37;100.00;100116.50;5075012;28;20024;-39
2024/03/01 01:07:19;;;;;;;3.93;2.93;;;;;;;8.38;100.00;100115.44;5075149;28;20017;-40
2024/03/01 01:09:45;;;;;;;3.85;2.90;;;;;;;8.38;100.00;100118.13;5075927;28;20033;-40
2024/03/01 01:12:11;;;;;;;4.85;3.67;;;;;;;8.36;100.00;100116.72;5075083;28;20078;-40
2024/03/01 01:14:36;;;;;;;5.30;4.20;;;;;;;8.33;100.00;100115.28;5075530;28;20020;-40
2024/03/01 01:17:01;;;;;;;6.27;4.00;;;;;;;8.21;100.00;100092.94;5074254;28;20094;-40
2024/03/01 01:19:27;;;;;;;4.80;3.97;;;;;;;8.14;100.00;100089.53;5074479;28;20757;-40
2024/03/01 01:21:52;;;;;;;6.20;4.87;;;;;;;8.17;100.00;100099.84;5075184;28;20401;-40
2024/03/01 01:24:18;;;;;;;6.03;4.82;;;;;;;8.04;100.00;100089.28;5074874;28;20027;-40
2024/03/01 01:26:43;;;;;;;6.18;5.15;;;;;;;8.08;100.00;100095.84;5075568;28;20036;-40
2024/03/01 01:29:08;;;;;;;5.47;4.90;;;;;;;8.06;100.00;100095.28;5075109;28;20025;-40
2024/03/01 01:31:34;;;;;;;6.07;5.37;;;;;;;8.03;100.00;100093.03;5074692;28;20103;-40
2024/03/01 01:33:59;;;;;;;6.20;5.30;;;;;;;8.02;100.00;100099.47;5074841;28;20266;-40
2024/03/01 01:36:25;;;;;;;5.43;4.90;;;;;;;8.00;100.00;100095.16;5074628;28;20029;-40
2024/03/01 01:38:50;;;;;;;5.70;5.03;;;;;;;7.98;100.00;100088.34;5075351;28;20259;-40
2024/03/01 01:41:16;;;;;;;6.53;5.28;;;;;;;7.92;100.00;100076.63;5074451;28;20095;-40
2024/03/01 01:43:42;;;;;;;5.28;4.78;;;;;;;7.95;100.00;100080.72;5074446;28;20460;-40
2024/03/01 01:46:09;;;;;;;6.40;5.47;;;;;;;7.90;100.00;100070.66;5074304;28;20031;-40
2024/03/01 01:48:35;;;;;;;6.53;4.88;;;;;;;7.89;100.00;100074.41;5074861;28;20047;-40
2024/03/01 01:51:01;;;;;;;7.78;5.10;;;;;;;7.86;100.00;100077.56;5074861;28;20449;-40
2024/03/01 01:53:27;;;;;;;6.28;4.93;;;;;;;7.83;100.00;100078.03;5074762;28;20025;-39
2024/03/01 01:55:52;;;;;;;6.45;4.93;;;;;;;7.82;100.00;100080.97;5074701;28;20048;-40
2024/03/01 01:58:19;;;;;;;7.82;5.20;;;;;;;7.79;100.00;100079.53;5074628;28;20020;-39
2024/03/01 02:00:46;;;;;;;7.30;5.68;;;;;;;7.72;100.00;100065.38;5074557;28;20029;-39
2024/03/01 02:03:12;;;;;;;6.45;5.00;;;;;;;7.75;100.00;100076.47;5073701;28;20453;-39
2024/03/01 02:05:38;;;;;;;;;;;;;;;7.84;100.00;100065.38;5074087;28;20025;-39
2024/03/01 02:08:04;;;;;;;5.75;4.85;;;;;;;7.77;100.00;100068.19;5073649;28;19954;-39
2024/03/01 02:10:29;;;;;;;5.93;5.32;;;;;;;7.71;100.00;100053.78;5073677;28;20023;-39
2024/03/01 02:13:02;;;;;;;7.37;5.53;;;;;;;7.77;100.00;100048.53;5073942;28;20029;-39
2024/03/01 02:15:29;;;;;;;5.53;4.93;;;;;;;7.75;100.00;100046.88;5073505;28;20024;-39
2024/03/01 02:17:55;;;;;;;6.13;4.80;;;;;;;7.69;100.00;100044.28;5073837;28;20033;-39
2024/03/01 02:20:22;;;;;;;5.78;5.07;;;;;;;7.76;100.00;100050.41;5074125;28;20063;-39
2024/03/01 02:23:06;;;;;;;5.30;4.45;;;;;;;7.79;100.00;100044.53;5073746;28;20036;-39
2024/03/01 02:25:32;;;;;;;6.05;4.88;;;;;;;7.78;100.00;100034.84;5074326;28;20364;-39
2024/03/01 02:27:57;;;;;;;7.18;5.03;;;;;;;7.72;100.00;100016.94;5073914;28;20027;-39
2024/03/01 02:30:23;;;;;;;6.03;4.93;;;;;;;7.77;100.00;100027.81;5073465;28;20032;-39
2024/03/01 02:32:48;;;;;;;7.07;4.80;;;;;;;7.78;100.00;100024.06;5073399;28;20278;-40
2024/03/01 02:35:14;;;;;;;5.67;4.50;;;;;;;7.66;100.00;99999.00;5074466;28;20024;-40
2024/03/01 02:37:41;;;;;;;5.38;4.00;;;;;;;7.76;100.00;100004.66;5073657;28;20279;-40
2024/03/01 02:40:08;;;;;;;4.05;3.60;;;;;;;7.77;100.00;100002.78;5074191;28;20394;-41
2024/03/01 02:42:33;;;;;;;3.88;3.47;;;;;;;7.83;100.00;100005.34;5073536;28;20035;-40
2024/03/01 02:45:00;;;;;;;4.10;3.50;;;;;;;7.86;100.00;100004.91;5073519;28;20020;-39
2024/03/01 02:47:26;;;;;;;4.78;3.80;;;;;;;7.86;100.00;100002.19;5073213;28;20020;-39
2024/03/01 02:49:52;;;;;;;6.10;3.60;;;;;;;7.87;100.00;99990.38;5074034;28;20062;-39
2024/03/01 02:52:17;;;;;;;3.60;3.20;;;;;;;7.95;100.00;100008.88;5074271;28;20020;-39
2024/03/01 02:54:42;;;;;;;5.00;2.90;;;;;;;7.99;100.00;100001.94;5074013;28;20051;-39
2024/03/01 02:57:08;;;;;;;3.07;2.60;;;;;;;7.95;100.00;99995.41;5073691;28;20020;-39
2024/03/01 02:59:33;;;;;;;3.57;2.90;;;;;;;8.07;100.00;99999.97;5073782;28;20044;-39
2024/03/01 03:01:59;;;;;;;3.23;2.63;;;;;;;8.04;100.00;99993.16;5073051;28;20407;-39
2024/03/01 03:04:24;;;;;;;2.83;2.50;;;;;;;8.09;100.00;99992.47;5073935;28;20028;-39
2024/03/01 03:06:49;;;;;;;3.23;2.50;;;;;;;8.13;100.00;100001.72;5073302;28;20024;-39
2024/03/01 03:09:15;;;;;;;3.37;2.60;;;;;;;8.14;100.00;99993.38;5073337;28;20012;-40
2024/03/01 03:11:40;;;;;;;3.70;2.17;;;;;;;8.17;100.00;99997.50;5073311;28;20082;-40
2024/03/01 03:14:05;;;;;;;3.33;2.47;;;;;;;8.20;100.00;99991.66;5073252;28;20440;-40
2024/03/01 03:16:31;;;;;;;2.53;2.23;;;;;;;8.16;100.00;99985.91;5073342;28;20054;-41
2024/03/01 03:18:56;;;;;;;2.90;2.30;;;;;;;8.22;100.00;100006.50;5073212;28;20023;-40
2024/03/01 03:21:21;;;;;;;2.37;2.10;;;;;;;8.21;100.00;100004.88;5072994;28;20051;-40
2024/03/01 03:23:47;;;;;;;4.03;2.30;;;;;;;8.23;100.00;100010.03;5073775;28;20021;-39
2024/03/01 03:26:12;;;;;;;3.07;2.20;;;;;;;8.23;100.00;100018.91;5073351;28;20024;-40
2024/03/01 03:28:38;;;;;;;2.33;2.13;;;;;;;8.15;100.00;100010.38;5073419;28;20296;-40
2024/03/01 03:31:03;;;;;;;3.63;2.35;;;;;;;8.20;100.00;100045.53;5073431;28;20032;-40
2024/03/01 03:33:29;;;;;;;2.28;2.08;;;;;;;8.10;100.00;100069.50;5073384;28;20028;-40
2024/03/01 03:35:54;;;;;;;1.30;1.20;;;;;;;7.98;100.00;100080.28;5072990;28;20058;-40
2024/03/01 03:38:20;;;;;;;3.58;1.30;;;;;;;7.85;100.00;100097.44;5073621;28;20027;-40
2024/03/01 03:40:45;;;;;;;1.73;1.23;;;;;;;7.68;100.00;100110.75;5073723;28;20028;-40
2024/03/01 03:43:10;;;;;;;3.03;1.48;;;;;;;7.53;100.00;100114.91;5077036;28;20056;-40
2024/03/01 03:45:36;;;;;;;2.50;1.40;;;;;;;7.40;100.00;100108.66;5076716;28;20059;-40
2024/03/01 03:48:02;;;;;;;2.15;1.35;;;;;;;7.28;100.00;100112.38;5076973;28;20024;-40
2024/03/01 03:50:27;;;;;;;1.98;1.40;;;;;;;7.19;100.00;100114.53;5077466;28;20044;-40
2024/03/01 03:52:52;;;;;;;1.87;1.30;;;;;;;7.12;100.00;100120.00;5076613;28;20027;-40
2024/03/01 03:55:18;;;;;;;1.40;1.30;;;;;;;7.00;100.00;100115.59;5077509;28;20047;-40
2024/03/01 03:57:43;;;;;;;2.15;1.40;;;;;;;6.91;100.00;100120.47;5077045;28;20031;-40
2024/03/01 04:00:09;;;;;;;1.50;1.03;;;;;;;6.89;100.00;100130.63;5077014;28;20020;-39
2024/03/01 04:02:36;;;;;;;2.78;1.30;;;;;;;6.77;100.00;100122.47;5076204;28;20480;-39
2024/03/01 04:05:01;;;;;;;1.75;1.30;;;;;;;6.80;100.00;100140.03;5076327;28;20095;-39
2024/03/01 04:07:29;;;;;;;1.55;1.20;;;;;;;6.71;100.00;100145.69;5092503;28;20056;-38
2024/03/01 04:09:54;;;;;;;1.30;1.20;;;;;;;6.71;100.00;100151.06;5076242;28;20027;-39
2024/03/01 04:12:20;;;;;;;1.73;1.15;;;;;;;6.68;100.00;100146.13;5076787;28;20025;-39
2024/03/01 04:14:46;;;;;;;1.85;1.30;;;;;;;6.61;100.00;100140.00;5076103;28;20021;-40
2024/03/01 04:17:11;;;;;;;2.03;1.38;;;;;;;6.65;100.00;100151.13;5076686;28;20356;-40
2024/03/01 04:19:37;;;;;;;1.70;1.40;;;;;;;6.64;100.00;100153.00;5076368;28;20082;-40
2024/03/01 04:22:03;;;;;;;3.63;1.30;;;;;;;6.58;100.00;100153.06;5076074;28;20363;-40
2024/03/01 04:24:29;;;;;;;2.08;1.42;;;;;;;6.56;100.00;100144.41;5076037;28;20070;-40
2024/03/01 04:26:54;;;;;;;;;;;;;;;6.63;100.00;100161.25;5076671;28;20364;-40
2024/03/01 04:29:19;;;;;;;2.08;1.48;;;;;;;6.54;100.00;100157.22;5075713;28;19949;-40
2024/03/01 04:31:48;;;;;;;2.50;1.80;;;;;;;6.51;100.00;100166.56;5076205;28;20025;-40
2024/03/01 04:34:20;;;;;;;2.38;1.65;;;;;;;6.46;100.00;100163.72;5076169;28;20050;-40
2024/03/01 04:36:46;;;;;;;2.35;1.80;;;;;;;6.42;100.00;100168.69;5075702;28;20025;-40
2024/03/01 04:39:14;;;;;;;2.30;2.00;;;;;;;6.36;100.00;100172.25;5075541;28;20035;-40
2024/03/01 04:41:40;;;;;;;2.42;1.80;;;;;;;6.33;100.00;100175.38;5075585;28;20027;-40
2024/03/01 04:44:05;;;;;;;2.40;1.98;;;;;;;6.39;100.00;100187.94;5075614;28;20025;-40
2024/03/01 04:46:31;;;;;;;3.87;2.20;;;;;;;6.28;100.00;100185.13;5075527;28;20024;-40
2024/03/01 04:48:56;;;;;;;2.30;2.10;;;;;;;6.29;100.00;100184.09;5075304;28;20255;-40
2024/03/01 04:51:25;;;;;;;2.50;2.08;;;;;;;6.28;100.00;100194.00;5075499;28;20029;-40
2024/03/01 04:53:51;;;;;;;2.53;1.90;;;;;;;6.36;100.00;100199.13;5075591;28;20062;-40
2024/03/01 04:56:19;;;;;;;4.30;2.10;;;;;;;6.25;100.00;100190.97;5076061;28;20028;-40
2024/03/01 04:58:45;;;;;;;2.72;1.92;;;;;;;6.29;100.00;100210.94;5075359;28;20086;-40
2024/03/01 05:01:10;;;;;;;2.80;1.80;;;;;;;6.28;100.00;100217.34;5075278;28;20028;-40
2024/03/01 05:03:36;;;;;;;2.50;1.75;;;;;;;6.26;100.00;100217.59;5075779;28;20095;-40
2024/03/01 05:06:03;;;;;;;2.15;1.90;;;;;;;6.22;100.00;100212.88;5075526;28;20035;-40
2024/03/01 05:08:30;;;;;;;2.60;1.95;;;;;;;6.25;100.00;100224.00;5075988;28;20099;-39
2024/03/01 05:10:56;;;;;;;2.88;2.05;;;;;;;6.22;100.00;100221.75;5075080;28;20023;-39
2024/03/01 05:13:21;;;;;;;2.42;1.80;;;;;;;6.21;100.00;100219.28;5075932;28;20025;-40
2024/03/01 05:15:48;;;;;;;2.63;1.65;;;;;;;6.22;100.00;100237.03;5074942;28;20035;-40
2024/03/01 05:18:14;;;;;;;3.30;1.73;;;;;;;6.17;100.00;100235.81;5075809;28;20024;-40
2024/03/01 05:20:39;;;;;;;2.42;1.70;;;;;;;6.14;100.00;100236.22;5074876;28;20016;-40
2024/03/01 05:23:05;;;;;;;3.08;1.90;;;;;;;6.09;100.00;100230.69;5074971;28;20021;-40
2024/03/01 05:25:30;;;;;;;4.38;1.90;;;;;;;6.14;100.00;100238.91;5074603;28;20145;-40
2024/03/01 05:27:56;;;;;;;2.67;1.60;;;;;;;6.05;100.00;100221.44;5075082;28;20031;-40
2024/03/01 05:30:23;;;;;;;4.27;1.93;;;;;;;6.10;100.00;100244.94;5075602;28;20317;-39
2024/03/01 05:32:52;;;;;;;2.20;1.50;;;;;;;6.03;100.00;100241.47;5074300;28;20020;-40
2024/03/01 05:35:20;;;;;;;3.58;1.60;;;;;;;6.08;100.00;100249.72;5074321;28;20024;-39
2024/03/01 05:37:48;;;;;;;3.90;1.70;;;;;;;6.09;100.00;100259.41;5074586;28;20050;-39
2024/03/01 05:40:15;;;;;;;1.75;1.33;;;;;;;6.08;100.00;100263.13;5075136;28;20032;-39
2024/03/01 05:42:41;;;;;;;3.47;1.38;;;;;;;6.02;100.00;100251.41;5074443;28;20046;-39
2024/03/01 05:45:07;;;;;;;2.65;1.50;;;;;;;6.04;100.00;100253.84;5074169;28;20060;-40
2024/03/01 05:47:43;;;;;;;4.18;1.70;;;;;;;5.97;100.00;100250.41;5075163;28;20024;-40
2024/03/01 05:50:11;;;;;;;3.35;1.52;;;;;;;6.04;100.00;100261.91;5074089;28;20025;-40
2024/03/01 05:52:38;;;;;;;2.42;1.77;;;;;;;6.01;100.00;100265.03;5074214;28;20368;-40
2024/03/01 05:55:04;;;;;;;2.72;1.60;;;;;;;5.90;100.00;100269.16;5075069;28;20036;-40
2024/03/01 05:57:30;;;;;;;;;;;;;;;6.07;100.00;100278.41;5074665;28;20059;-40
2024/03/01 05:59:56;;;;;;;3.88;2.15;;;;;;;5.96;100.00;100279.09;5074244;28;19955;-40
2024/03/01 06:02:22;;;;;;;3.90;1.90;;;;;;;5.96;100.00;100292.53;5073821;28;20028;-39
2024/03/01 06:04:47;;;;;;;3.28;1.98;;;;;;;5.94;100.00;100291.91;5073534;28;20103;-39
2024/03/01 06:07:13;;;;;;;2.90;1.90;;;;;;;5.90;100.00;100288.81;5074016;28;20016;-39
2024/03/01 06:09:38;;;;;;;2.53;1.83;;;;;;;5.92;100.00;100292.13;5074365;28;20107;-39
2024/03/01 06:12:04;;;;;;;2.77;2.00;;;;;;;5.94;100.00;100287.34;5074267;28;20266;-39
2024/03/01 06:14:29;;;;;;;3.53;2.38;;;;;;;5.97;100.00;100296.03;5074377;28;20050;-39
2024/03/01 06:16:55;;;;;;;5.57;2.40;;;;;;;5.92;100.00;100296.66;5074172;28;20043;-38
2024/03/01 06:19:20;;;;;;;2.47;2.07;;;;;;;5.95;100.00;100301.59;5073821;28;20025;-39
2024/03/01 06:21:45;;;;;;;3.10;2.30;;;;;;;5.95;100.00;100298.91;5073994;28;20266;-39
2024/03/01 06:24:11;;;;;;;3.55;2.42;;;;;;;5.93;100.00;100301.81;5074074;28;20379;-39
2024/03/01 06:26:38;;;;;;;6.20;3.00;;;;;;;5.93;100.00;100304.50;5073780;28;20020;-40
2024/03/01 06:29:04;;;;;;;5.20;3.10;;;;;;;5.87;100.00;100296.47;5074297;28;20112;-39
2024/03/01 06:31:29;;;;;;;5.10;3.67;;;;;;;5.88;100.00;100303.47;5073678;28;20048;-39
2024/03/01 06:33:54;;;;;;;5.87;4.03;;;;;;;5.92;100.00;100320.81;5073965;28;20036;-39
2024/03/01 06:36:20;;;;;;;4.20;3.80;;;;;;;5.93;100.00;100314.41;5073613;28;20361;-40
2024/03/01 06:38:46;;;;;;;6.37;4.40;;;;;;;5.86;100.00;100324.31;5074173;28;20078;-40
2024/03/01 06:41:11;;;;;;;6.25;4.50;;;;;;;5.83;100.00;100322.88;5073587;28;20052;-40
2024/03/01 06:43:37;;;;;;;5.30;4.55;;;;;;;5.83;100.00;100325.56;5073490;28;20055;-39
2024/03/01 06:46:07;;;;;;;6.93;5.47;;;;;;;5.82;100.00;100331.16;5073486;28;20040;-40
2024/03/01 06:48:33;;;;;;;5.97;5.38;;;;;;;5.80;100.00;100325.97;5073515;28;20532;-40
2024/03/01 06:50:58;;;;;;;;;;;;;;;5.88;100.00;100331.13;5073888;28;20112;-40
2024/03/01 06:53:26;;;;;;;7.05;5.32;;;;;;;5.79;100.00;100335.06;5074206;28;20081;-39
2024/03/01 06:55:51;;;;;;;7.15;5.60;;;;;;;5.76;100.00;100338.19;5073125;28;20180;-40
2024/03/01 06:58:17;;;;;;;7.93;5.97;;;;;;;5.77;100.00;100339.84;5073934;28;20029;-40
2024/03/01 07:00:46;;;;;;;8.13;5.93;;;;;;;5.77;100.00;100339.84;5073124;28;20032;-40
2024/03/01 07:03:13;;;;;;;6.30;5.68;;;;;;;5.75;100.00;100352.63;5073650;28;20098;-40
2024/03/01 07:05:38;;;;;;;6.55;5.95;;;;;;;5.76;100.00;100351.59;5073301;28;20435;-40
2024/03/01 07:08:04;;;;;;;8.87;6.73;;;;;;;5.72;100.00;100342.34;5073439;28;20056;-40
2024/03/01 07:10:29;;;;;;;8.73;6.95;;;;;;;5.64;100.00;100338.00;5073279;28;20514;-39
2024/03/01 07:12:56;;;;;;;8.32;6.93;;;;;;;5.66;100.00;100337.78;5073465;28;20135;-39
2024/03/01 07:15:21;;;;;;;;;;;;;;;5.73;100.00;100346.66;5073879;28;20434;-39
2024/03/01 07:17:46;;;;;;;7.90;7.10;;;;;;;5.55;100.00;100322.34;5077263;28;19909;-40
2024/03/01 07:20:12;;;;;;;9.17;7.60;;;;;;;5.65;100.00;100333.47;5077495;28;20266;-40
2024/03/01 07:22:38;;;;;;;10.75;7.82;;;;;;;5.64;100.00;100331.81;5077344;28;20030;-40
2024/03/01 07:25:05;;;;;;;8.40;7.53;;;;;;;5.66;100.00;100332.41;5077406;28;20457;-40
2024/03/01 07:27:34;;;;;;;8.82;7.93;;;;;;;5.59;100.00;100328.94;5077309;28;20044;-40
2024/03/01 07:29:59;;;;;;;8.15;7.10;;;;;;;5.59;100.00;100347.72;5077282;28;20016;-40
2024/03/01 07:32:24;;;;;;;8.20;7.40;;;;;;;5.55;100.00;100330.41;5077670;28;20034;-40
2024/03/01 07:34:50;;;;;;;8.33;7.47;;;;;;;5.61;100.00;100342.97;5076810;28;20106;-40
2024/03/01 07:37:15;;;;;;;9.17;7.57;;;;;;;5.57;100.00;100320.31;5076857;28;20067;-40
2024/03/01 07:39:40;;;;;;;9.07;7.90;;;;;;;5.59;100.00;100332.44;5076727;28;20025;-39
2024/03/01 07:42:06;;;;;;;8.80;7.67;;;;;;;5.56;100.00;100334.72;5076771;28;20035;-39
2024/03/01 07:44:31;;;;;;;8.50;7.70;;;;;;;5.52;100.00;100337.03;5077525;28;20021;-40
2024/03/01 07:46:58;;;;;;;8.20;7.37;;;;;;;5.55;100.00;100336.59;5076616;28;20190;-40
2024/03/01 07:49:25;;;;;;;10.05;7.55;;;;;;;5.54;100.00;100336.81;5076699;28;20034;-40
2024/03/01 07:51:52;;;;;;;10.90;7.35;;;;;;;5.50;100.00;100330.22;5076695;28;20033;-40
2024/03/01 07:54:18;;;;;;;8.98;8.02;;;;;;;5.49;100.00;100328.56;5076152;28;20093;-40
2024/03/01 07:56:43;;;;;;;8.55;7.07;;;;;;;5.50;100.00;100327.53;5076672;28;20028;-40
2024/03/01 07:59:08;;;;;;;8.97;6.90;;;;;;;5.54;100.00;100326.91;5076224;28;20039;-40
2024/03/01 08:01:34;;;;;;;10.10;7.37;;;;;;;5.67;100.00;100339.47;5076510;28;20020;-40
2024/03/01 08:03:59;;;;;;;9.67;6.90;;;;;;;5.75;100.00;100343.75;5076416;28;20048;-40
2024/03/01 08:06:25;;;;;;;7.88;6.57;;;;;;;5.77;100.00;100347.06;5076280;28;20038;-40
2024/03/01 08:08:50;;;;;;;7.50;6.73;;;;;;;5.80;100.00;100342.06;5076950;28;20074;-40
2024/03/01 08:11:38;;;;;;;7.93;6.67;;;;;;;5.85;100.00;100339.59;5075072;28;20070;-40
2024/03/01 08:14:09;;;;;;;7.20;6.50;;;;;;;5.93;100.00;100346.63;5076352;28;20024;-40
2024/03/01 08:16:34;;;;;;;9.80;7.22;;;;;;;5.96;100.00;100343.50;5076962;28;20031;-40
2024/03/01 08:18:59;;;;;;;9.37;7.40;;;;;;;6.01;100.00;100340.19;5076429;28;20013;-39
2024/03/01 08:21:25;;;;;;;7.73;6.40;;;;;;;5.98;100.00;100340.59;5075784;28;20259;-40
2024/03/01 08:23:51;;;;;;;8.75;7.35;;;;;;;6.03;100.00;100338.94;5076371;28;20019;-40
2024/03/01 08:26:23;;;;;;;7.75;6.38;;;;;;;6.06;100.00;100341.19;5075860;28;20510;-40
2024/03/01 08:28:49;;;;;;;8.15;5.90;;;;;;;6.03;100.00;100349.66;5075923;28;20029;-40
2024/03/01 08:31:23;;;;;;;7.43;6.20;;;;;;;6.09;100.00;100340.75;5076260;28;20518;-40
2024/03/01 08:33:57;;;;;;;8.88;6.13;;;;;;;6.14;100.00;100350.84;5075895;28;20052;-40
2024/03/01 08:36:22;;;;;;;10.30;5.97;;;;;;;6.23;100.00;100338.84;5075521;28;20086;-40
2024/03/01 08:38:58;;;;;;;8.25;5.57;;;;;;;6.30;100.00;100358.44;5076037;28;20028;-40
2024/03/01 08:41:25;;;;;;;7.60;5.45;;;;;;;6.35;100.00;100355.09;5076008;28;20016;-40
2024/03/01 08:43:50;;;;;;;8.98;5.93;;;;;;;6.35;100.00;100344.38;5075416;28;20077;-40
2024/03/01 08:46:33;;;;;;;6.38;4.97;;;;;;;6.44;100.00;100354.63;5075935;28;20115;-40
2024/03/01 08:49:20;;;;;;;6.10;4.70;;;;;;;6.37;100.00;100345.78;5075596;28;20103;-40
2024/03/01 08:51:45;;;;;;;10.93;5.57;;;;;;;6.43;100.00;100342.22;5044068;28;20150;-40
2024/03/01 08:54:11;;;;;;;6.17;4.47;;;;;;;6.49;100.00;100342.41;5075984;28;20040;-40
2024/03/01 08:56:38;;;;;;;8.57;4.85;;;;;;;6.63;100.00;100352.84;5075976;28;20021;-40
2024/03/01 08:59:28;;;;;;;5.97;4.38;;;;;;;6.74;100.00;100362.09;5075399;28;20456;-40
2024/03/01 09:01:54;;;;;;;7.03;4.65;;;;;;;6.81;100.00;100365.53;5075938;28;20444;-40
2024/03/01 09:04:37;;;;;;;7.78;4.80;;;;;;;6.87;100.00;100359.28;5075896;28;20031;-40
2024/03/01 09:07:14;;;;;;;6.32;4.38;;;;;;;7.02;100.00;100364.34;5075240;28;20067;-40
2024/03/01 09:09:41;;;;;;;8.32;3.95;;;;;;;7.05;100.00;100349.66;5074903;28;20020;-38
2024/03/01 09:12:21;;;;;;;5.78;3.72;;;;;;;7.11;100.00;100351.44;5075331;28;20025;-39
2024/03/01 09:14:47;;;;;;;6.47;3.60;;;;;;;7.13;100.00;100335.94;5075803;28;20024;-39
2024/03/01 09:17:13;;;;;;;5.60;3.27;;;;;;;7.20;100.00;100339.38;5075557;28;20342;-39
2024/03/01 09:19:43;;;;;;;4.93;3.35;;;;;;;7.20;100.00;100348.25;5074987;28;20324;-40
2024/03/01 09:22:09;;;;;;;5.68;3.10;;;;;;;7.29;100.00;100351.50;5074914;28;20048;-39
2024/03/01 09:24:38;;;;;;;;;;;;;;;7.36;100.00;100352.25;5075913;28;20029;-39
2024/03/01 09:27:18;;;;;;;6.80;2.97;;;;;;;7.34;100.00;100351.66;5074810;28;19908;-38
2024/03/01 09:29:46;;;;;;;6.25;3.15;;;;;;;7.40;100.00;100352.63;5074858;28;20024;-39
2024/03/01 09:32:12;;;;;;;5.57;3.35;;;;;;;7.42;100.00;100350.56;5074406;28;20025;-40
2024/03/01 09:34:39;;;;;;;;;;;;;;;7.60;100.00;100352.44;5075595;28;20019;-40
2024/03/01 09:37:08;;;;;;;5.43;3.10;;;;;;;7.47;100.00;100345.34;5074690;28;19915;-39
2024/03/01 09:39:34;;;;;;;4.75;3.13;;;;;;;7.46;100.00;100349.03;5073702;28;20028;-39
2024/03/01 09:42:22;;;;;;;8.05;3.90;;;;;;;7.56;100.00;100345.84;5074970;28;20030;-39
2024/03/01 09:45:15;;;;;;;4.63;2.65;;;;;;;7.68;100.00;100344.06;5075045;28;20020;-39
2024/03/01 09:47:49;;;;;;;5.65;3.10;;;;;;;7.52;100.00;100333.91;5075175;28;20024;-39
2024/03/01 09:50:37;;;;;;;4.63;2.75;;;;;;;7.37;100.00;100332.41;5074896;28;20078;-39
2024/03/01 09:53:14;;;;;;;5.30;2.97;;;;;;;7.38;100.00;100325.16;5074100;28;20017;-39
2024/03/01 09:55:59;;;;;;;4.13;2.70;;;;;;;7.60;100.00;100334.41;5073746;28;20040;-39
2024/03/01 09:58:37;;;;;;;3.42;2.53;;;;;;;7.83;100.00;100331.06;5074484;28;20108;-39
2024/03/01 10:01:13;;;;;;;4.60;2.40;;;;;;;7.78;100.00;100336.28;5074807;28;20025;-40
2024/03/01 10:03:38;;;;;;;;;;;;;;;7.84;100.00;100337.25;5075441;28;20020;-40
2024/03/01 10:06:21;;;;;;;5.03;2.77;;;;;;;7.68;100.00;100342.19;5074126;28;20241;-40
2024/03/01 10:09:04;;;;;;;4.10;2.13;;;;;;;7.68;100.00;100331.44;5074064;28;20080;-40
2024/03/01 10:11:49;;;;;;;3.13;1.67;;;;;;;7.64;100.00;100337.47;5073705;28;20021;-39
2024/03/01 10:14:33;;;;;;;3.85;1.83;;;;;;;7.63;100.00;100333.16;5073140;28;20052;-39
2024/03/01 10:17:13;;;;;;;5.25;1.67;;;;;;;7.62;100.00;100331.53;5073881;28;20028;-39
2024/03/01 10:20:09;;;;;;;4.43;1.65;;;;;;;7.61;100.00;100329.84;5073864;28;20066;-39
2024/03/01 10:22:43;;;;;;;4.72;1.65;;;;;;;7.72;100.00;100329.13;5074391;28;20356;-39
2024/03/01 10:25:19;;;;;;;3.40;1.60;;;;;;;7.89;100.00;100310.47;5073872;28;20043;-39
2024/03/01 10:27:51;;;;;;;3.13;1.30;;;;;;;7.81;100.00;100302.69;5073469;28;20056;-40
2024/03/01 10:30:20;;;;;;;5.53;1.95;;;;;;;7.92;100.00;100286.63;5073736;28;20452;-40
2024/03/01 10:33:03;;;;;;;3.45;1.25;;;;;;;8.19;100.00;100305.09;5073922;28;20024;-40
2024/03/01 10:35:47;;;;;;;7.68;1.88;;;;;;;8.28;100.00;100295.66;5073604;28;20107;-40
2024/03/01 10:38:36;;;;;;;4.32;1.27;;;;;;;8.19;100.00;100284.38;5073918;28;20388;-40
2024/03/01 10:41:32;;;;;;;3.55;1.38;;;;;;;8.21;100.00;100274.22;5073357;28;20023;-39
2024/03/01 10:44:17;;;;;;;3.55;1.70;;;;;;;8.22;100.00;100272.34;5073763;28;20368;-39
2024/03/01 10:47:21;;;;;;;3.97;1.60;;;;;;;8.40;100.00;100264.22;5073534;28;20032;-39
2024/03/01 10:50:07;;;;;;;4.13;1.63;;;;;;;8.56;100.00;100264.63;5071888;28;20481;-39
2024/03/01 10:52:37;;;;;;;5.47;1.53;;;;;;;8.66;100.00;100267.56;5073863;28;20178;-39
2024/03/01 10:55:05;;;;;;;3.78;1.50;;;;;;;8.79;100.00;100243.09;5073513;28;20045;-40
2024/03/01 10:57:38;;;;;;;3.85;1.40;;;;;;;8.87;100.00;100237.31;5073971;28;20063;-39
2024/03/01 11:00:12;;;;;;;3.85;1.70;;;;;;;8.96;100.00;100240.50;5073940;28;20107;-39
2024/03/01 11:02:55;;;;;;;4.78;1.38;;;;;;;9.01;100.00;100224.44;5073396;28;20024;-40
2024/03/01 11:05:41;;;;;;;7.43;1.77;;;;;;;8.92;100.00;100215.88;5073654;28;20524;-40
2024/03/01 11:08:28;;;;;;;4.97;1.55;;;;;;;9.05;100.00;100232.88;5073944;28;20025;-40
2024/03/01 11:11:17;;;;;;;2.70;1.20;;;;;;;9.07;100.00;100222.66;5073588;28;20028;-40
2024/03/01 11:13:44;;;;;;;2.53;1.08;;;;;;;9.15;100.00;100212.34;5074103;28;20494;-40
2024/03/01 11:16:14;;;;;;;3.90;1.10;;;;;;;9.22;100.00;100204.09;5073023;28;20019;-40
2024/03/01 11:18:44;;;;;;;4.00;1.00;;;;;;;9.31;100.00;100205.38;5073264;28;20052;-40
2024/03/01 11:21:13;;;;;;;3.47;1.08;;;;;;;9.34;100.00;100215.72;5073206;28;20031;-39
2024/03/01 11:23:55;;;;;;;4.45;1.45;;;;;;;9.33;100.00;100205.97;5073393;28;20457;-39
2024/03/01 11:26:43;;;;;;;3.03;0.80;;;;;;;9.49;100.00;100194.44;5073162;28;20021;-40
2024/03/01 11:29:23;;;;;;;2.40;0.90;;;;;;;9.51;100.00;100195.00;5073964;28;20020;-39
2024/03/01 11:31:54;;;;;;;2.42;0.80;;;;;;;9.54;100.00;100181.03;5073436;28;20031;-39
2024/03/01 11:34:29;;;;;;;2.40;0.93;;;;;;;9.63;100.00;100177.97;5073286;28;20048;-40